createdAt,value
2023-01-18T00:01:24.823Z,77.76
2023-01-18T00:03:54.629Z,78.52
2023-01-18T00:06:27.833Z,78.28
2023-01-18T00:09:00.330Z,78.24
2023-01-18T00:11:30.162Z,78.62
2023-01-18T00:14:00.021Z,78.79
2023-01-18T00:16:30.381Z,78.30
2023-01-18T00:19:02.190Z,78.15
2023-01-18T00:21:32.027Z,77.75
2023-01-18T00:24:04.377Z,78.19
2023-01-18T00:26:34.245Z,78.06
2023-01-18T00:29:04.890Z,77.50
2023-01-18T00:31:34.809Z,79.30
2023-01-18T00:34:04.671Z,78.65
2023-01-18T00:36:34.760Z,78.01
2023-01-18T00:39:08.877Z,77.72
2023-01-18T00:41:59.441Z,77.53
2023-01-18T00:44:26.669Z,78.07
2023-01-18T00:46:56.450Z,77.65
2023-01-18T00:49:26.942Z,78.14
2023-01-18T00:51:58.760Z,78.01
2023-01-18T00:54:31.298Z,78.50
2023-01-18T00:57:01.204Z,78.38
2023-01-18T00:59:31.078Z,77.84
2023-01-18T01:02:01.067Z,78.69
2023-01-18T01:04:43.548Z,78.42
2023-01-18T01:07:14.264Z,78.88
2023-01-18T01:09:46.797Z,79.03
2023-01-18T01:12:29.107Z,78.28
2023-01-18T01:15:11.452Z,78.24
2023-01-18T01:17:54.452Z,78.55
2023-01-18T01:20:38.617Z,78.87
2023-01-18T01:23:25.627Z,78.65
2023-01-18T01:26:08.890Z,78.33
2023-01-18T01:28:39.382Z,78.03
2023-01-18T01:31:12.073Z,77.68
2023-01-18T01:33:42.500Z,78.72
2023-01-18T01:36:15.213Z,78.73
2023-01-18T01:38:45.395Z,78.50
2023-01-18T01:41:23.797Z,77.87
2023-01-18T01:43:56.023Z,77.53
2023-01-18T01:46:35.510Z,77.45
2023-01-18T01:49:14.613Z,78.55
2023-01-18T01:51:47.094Z,77.73
2023-01-18T01:54:23.882Z,78.55
2023-01-18T01:57:06.232Z,78.34
2023-01-18T01:59:41.326Z,78.41
2023-01-18T02:02:13.656Z,78.05
2023-01-18T02:04:46.569Z,77.62
2023-01-18T02:07:16.596Z,77.94
2023-01-18T02:09:46.689Z,78.27
2023-01-18T02:12:19.832Z,78.48
2023-01-18T02:14:50.174Z,78.42
2023-01-18T02:17:37.004Z,78.56
2023-01-18T02:20:57.817Z,78.53
2023-01-18T02:23:45.971Z,78.29
2023-01-18T02:26:46.228Z,78.01
2023-01-18T02:29:23.731Z,77.75
2023-01-18T02:32:17.164Z,78.65
2023-01-18T02:34:52.245Z,78.31
2023-01-18T02:37:33.060Z,78.30
2023-01-18T02:40:17.896Z,78.07
2023-01-18T02:43:00.974Z,78.34
2023-01-18T02:45:51.526Z,78.22
2023-01-18T02:48:25.562Z,78.81
2023-01-18T02:50:55.717Z,78.89
2023-01-18T02:53:25.546Z,78.75
2023-01-18T02:56:02.847Z,78.90
2023-01-18T02:58:37.253Z,78.42
2023-01-18T03:01:14.572Z,78.14
2023-01-18T03:03:48.786Z,78.40
2023-01-18T03:06:18.632Z,78.44
2023-01-18T03:08:52.710Z,78.96
2023-01-18T03:11:35.894Z,78.88
2023-01-18T03:14:23.926Z,79.35
2023-01-18T03:17:08.770Z,78.87
2023-01-18T03:19:59.937Z,78.80
2023-01-18T03:22:43.755Z,79.13
2023-01-18T03:25:20.264Z,78.84
2023-01-18T03:28:07.203Z,78.36
2023-01-18T03:30:51.929Z,78.40
2023-01-18T03:33:47.245Z,77.60
2023-01-18T03:36:24.864Z,77.29
2023-01-18T03:39:00.547Z,77.70
2023-01-18T03:41:35.120Z,76.89
2023-01-18T03:44:12.365Z,76.75
2023-01-18T03:46:43.945Z,76.38
2023-01-18T03:49:17.938Z,76.29
2023-01-18T03:52:02.865Z,76.85
2023-01-18T03:54:40.921Z,77.39
2023-01-18T03:57:19.295Z,76.30
2023-01-18T03:59:50.364Z,77.48
2023-01-18T04:02:21.337Z,77.56
2023-01-18T04:04:57.768Z,77.20
2023-01-18T04:07:28.380Z,78.10
2023-01-18T04:09:58.257Z,78.02
2023-01-18T04:12:28.287Z,77.57
2023-01-18T04:14:58.199Z,77.51
2023-01-18T04:17:27.979Z,78.11
2023-01-18T04:20:00.379Z,77.67
2023-01-18T04:22:30.274Z,77.51
2023-01-18T04:25:00.128Z,78.45
2023-01-18T04:27:30.023Z,78.78
2023-01-18T04:30:00.576Z,77.78
2023-01-18T04:32:31.251Z,78.17
2023-01-18T04:35:03.674Z,78.09
2023-01-18T04:37:34.705Z,78.44
2023-01-18T04:40:04.568Z,77.96
2023-01-18T04:42:34.547Z,78.58
2023-01-18T04:45:04.540Z,77.71
2023-01-18T04:47:34.418Z,77.40
2023-01-18T04:50:08.334Z,77.09
2023-01-18T04:52:38.131Z,78.66
2023-01-18T04:55:09.151Z,78.04
2023-01-18T04:57:39.042Z,77.95
2023-01-18T05:00:10.998Z,78.28
2023-01-18T05:02:41.048Z,78.08
2023-01-18T05:05:13.635Z,77.53
2023-01-18T05:10:15.107Z,78.18
2023-01-18T05:12:44.948Z,77.36
2023-01-18T05:15:14.923Z,76.57
2023-01-18T05:17:44.715Z,77.38
2023-01-18T05:20:17.261Z,77.43
2023-01-18T05:22:47.128Z,76.49
2023-01-18T05:25:17.211Z,76.03
2023-01-18T05:27:47.215Z,76.64
2023-01-18T05:30:18.238Z,76.67
2023-01-18T05:32:48.010Z,76.20
2023-01-18T05:35:20.498Z,76.80
2023-01-18T05:37:51.537Z,76.40
2023-01-18T05:40:21.737Z,75.17
2023-01-18T05:42:51.652Z,75.37
2023-01-18T05:45:21.499Z,75.95
2023-01-18T05:47:51.315Z,75.33
2023-01-18T05:50:23.802Z,75.53
2023-01-18T05:52:53.659Z,76.13
2023-01-18T05:55:23.531Z,76.71
2023-01-18T05:57:53.635Z,77.26
2023-01-18T06:00:24.641Z,77.20
2023-01-18T06:02:55.647Z,76.52
2023-01-18T06:05:28.469Z,76.70
2023-01-18T06:07:58.360Z,76.97
2023-01-18T06:10:28.267Z,77.17
2023-01-18T06:12:58.438Z,76.50
2023-01-18T06:15:28.413Z,76.31
2023-01-18T06:17:59.455Z,75.92
2023-01-18T06:20:32.213Z,76.39
2023-01-18T06:23:02.104Z,76.72
2023-01-18T06:25:31.976Z,77.32
2023-01-18T06:28:02.716Z,77.24
2023-01-18T06:30:32.513Z,77.41
2023-01-18T06:33:06.724Z,77.49
2023-01-18T06:35:40.108Z,77.60
2023-01-18T06:38:10.748Z,77.81
2023-01-18T06:40:40.578Z,78.08
2023-01-18T06:43:14.153Z,78.20
2023-01-18T06:45:44.795Z,78.21
2023-01-18T06:48:14.681Z,78.21
2023-01-18T06:50:47.122Z,78.38
2023-01-18T06:53:16.970Z,77.79
2023-01-18T06:55:46.775Z,77.53
2023-01-18T06:58:16.677Z,77.79
2023-01-18T07:00:46.494Z,78.47
2023-01-18T07:03:16.476Z,78.91
2023-01-18T07:05:49.046Z,78.75
2023-01-18T07:08:21.065Z,78.61
2023-01-18T07:10:52.573Z,78.83
2023-01-18T07:13:22.963Z,77.64
2023-01-18T07:16:00.771Z,78.15
2023-01-18T07:18:32.694Z,77.46
2023-01-18T07:21:08.179Z,77.15
2023-01-18T07:23:40.622Z,77.31
2023-01-18T07:26:12.625Z,78.24
2023-01-18T07:28:42.463Z,77.93
2023-01-18T07:31:12.298Z,77.90
2023-01-18T07:33:42.195Z,77.85
2023-01-18T07:36:15.530Z,77.75
2023-01-18T07:38:45.480Z,77.37
2023-01-18T07:41:17.247Z,77.32
2023-01-18T07:43:48.098Z,77.85
2023-01-18T07:46:21.258Z,77.97
2023-01-18T07:48:51.854Z,77.75
2023-01-18T07:51:25.718Z,77.43
2023-01-18T07:53:56.731Z,76.58
2023-01-18T07:56:27.284Z,76.58
2023-01-18T07:58:57.331Z,76.88
2023-01-18T08:01:27.639Z,76.51
2023-01-18T08:03:57.543Z,76.61
2023-01-18T08:06:30.103Z,76.44
2023-01-18T08:09:00.022Z,77.08
2023-01-18T08:11:29.915Z,76.83
2023-01-18T08:13:59.761Z,77.43
2023-01-18T08:16:29.651Z,77.78
2023-01-18T08:18:59.481Z,77.78
2023-01-18T08:21:33.617Z,77.20
2023-01-18T08:24:03.551Z,77.19
2023-01-18T08:26:34.646Z,77.12
2023-01-18T08:29:04.700Z,76.82
2023-01-18T08:31:34.812Z,76.69
2023-01-18T08:34:05.034Z,76.64
2023-01-18T08:36:37.511Z,77.56
2023-01-18T08:39:07.344Z,77.02
2023-01-18T08:41:41.287Z,76.85
2023-01-18T08:44:11.600Z,76.32
2023-01-18T08:46:41.586Z,76.20
2023-01-18T08:49:11.520Z,76.52
2023-01-18T08:51:44.003Z,76.38
2023-01-18T08:54:13.892Z,76.64
2023-01-18T08:56:43.806Z,76.53
2023-01-18T08:59:13.703Z,76.59
2023-01-18T09:01:43.691Z,75.77
2023-01-18T09:04:13.824Z,76.95
2023-01-18T09:06:47.446Z,76.81
2023-01-18T09:09:17.594Z,76.78
2023-01-18T09:11:47.625Z,77.79
2023-01-18T09:14:18.181Z,76.45
2023-01-18T09:16:48.057Z,76.71
2023-01-18T09:19:18.201Z,76.63
2023-01-18T09:21:50.613Z,75.81
2023-01-18T09:24:20.793Z,76.60
2023-01-18T09:26:53.602Z,75.97
2023-01-18T09:29:23.887Z,75.95
2023-01-18T09:31:55.942Z,75.36
2023-01-18T09:34:26.867Z,76.49
2023-01-18T09:36:59.296Z,76.55
2023-01-18T09:39:33.413Z,76.01
2023-01-18T09:42:07.571Z,76.69
2023-01-18T09:44:42.349Z,76.02
2023-01-18T09:47:20.836Z,76.60
2023-01-18T09:49:57.438Z,76.61
2023-01-18T09:52:44.971Z,77.44
2023-01-18T09:55:25.938Z,77.11
2023-01-18T09:58:19.359Z,76.53
2023-01-18T10:00:52.113Z,76.46
2023-01-18T10:03:31.580Z,77.00
2023-01-18T10:06:11.137Z,76.14
2023-01-18T10:08:56.516Z,75.47
2023-01-18T10:11:32.785Z,74.74
2023-01-18T10:14:10.884Z,75.11
2023-01-18T10:16:40.764Z,74.75
2023-01-18T10:19:21.521Z,74.25
2023-01-18T10:22:02.281Z,74.53
2023-01-18T10:24:46.515Z,74.55
2023-01-18T10:27:36.886Z,73.45
2023-01-18T10:30:28.161Z,73.88
2023-01-18T10:33:03.092Z,73.25
2023-01-18T10:35:36.811Z,74.05
2023-01-18T10:38:14.046Z,74.06
2023-01-18T10:40:52.524Z,73.62
2023-01-18T10:43:27.398Z,73.72
2023-01-18T10:45:58.048Z,74.66
2023-01-18T10:48:32.109Z,73.62
2023-01-18T10:51:05.943Z,74.22
2023-01-18T10:53:38.200Z,72.68
2023-01-18T10:56:19.357Z,72.07
2023-01-18T10:58:57.787Z,70.95
2023-01-18T11:01:30.731Z,71.30
2023-01-18T11:04:06.143Z,71.03
2023-01-18T11:06:48.374Z,70.54
2023-01-18T11:09:44.114Z,67.75
2023-01-18T11:12:37.520Z,64.40
2023-01-18T11:15:27.566Z,63.08
2023-01-18T11:18:06.709Z,61.17
2023-01-18T11:20:44.669Z,60.48
2023-01-18T11:23:22.746Z,60.70
2023-01-18T11:25:57.915Z,59.87
2023-01-18T11:28:37.507Z,60.14
2023-01-18T11:31:13.891Z,60.44
2023-01-18T11:33:54.658Z,60.49
2023-01-18T11:36:38.008Z,60.87
2023-01-18T11:39:21.890Z,60.06
2023-01-18T11:41:52.129Z,60.64
2023-01-18T11:44:30.559Z,59.64
2023-01-18T11:47:04.047Z,59.03
2023-01-18T11:49:45.730Z,58.43
2023-01-18T11:52:27.388Z,59.27
2023-01-18T11:55:05.740Z,58.76
2023-01-18T11:57:35.764Z,60.17
2023-01-18T12:00:18.034Z,60.00
2023-01-18T12:03:14.328Z,60.33
2023-01-18T12:05:54.774Z,60.56
2023-01-18T12:08:54.272Z,60.07
2023-01-18T12:11:46.290Z,58.83
2023-01-18T12:14:48.977Z,59.40
2023-01-18T12:17:46.823Z,59.08
2023-01-18T12:20:34.696Z,59.32
2023-01-18T12:23:24.224Z,60.68
2023-01-18T12:26:25.415Z,60.75
2023-01-18T12:29:15.448Z,61.42
2023-01-18T12:32:02.648Z,60.30
2023-01-18T12:34:44.536Z,60.55
2023-01-18T12:37:40.448Z,61.03
2023-01-18T12:40:34.998Z,59.58
2023-01-18T12:43:19.859Z,59.05
2023-01-18T12:46:00.174Z,59.82
2023-01-18T12:48:36.075Z,61.23
2023-01-18T12:51:16.963Z,61.47
2023-01-18T12:53:51.470Z,62.17
2023-01-18T12:56:27.741Z,61.60
2023-01-18T12:59:01.630Z,59.76
2023-01-18T13:01:38.995Z,59.83
2023-01-18T13:04:18.513Z,57.77
2023-01-18T13:06:53.058Z,58.41
2023-01-18T13:09:28.529Z,58.15
2023-01-18T13:11:59.472Z,57.51
2023-01-18T13:14:39.170Z,56.27
2023-01-18T13:17:18.493Z,56.39
2023-01-18T13:19:56.014Z,55.26
2023-01-18T13:22:43.186Z,55.29
2023-01-18T13:25:38.086Z,54.62
2023-01-18T13:28:19.633Z,55.56
2023-01-18T13:30:56.895Z,54.46
2023-01-18T13:33:30.704Z,55.74
2023-01-18T13:36:07.883Z,54.31
2023-01-18T13:38:50.772Z,54.98
2023-01-18T13:41:26.886Z,54.28
2023-01-18T13:44:06.129Z,55.54
2023-01-18T13:46:39.613Z,55.07
2023-01-18T13:49:37.123Z,53.91
2023-01-18T13:52:32.187Z,52.64
2023-01-18T13:55:08.333Z,51.69
2023-01-18T13:57:38.554Z,51.79
2023-01-18T14:00:24.590Z,53.01
2023-01-18T14:02:58.279Z,53.18
2023-01-18T14:05:40.515Z,52.64
2023-01-18T14:08:13.470Z,52.79
2023-01-18T14:10:54.295Z,53.76
2023-01-18T14:14:03.950Z,53.23
2023-01-18T14:16:38.232Z,52.93
2023-01-18T14:19:19.815Z,52.71
2023-01-18T14:22:11.214Z,52.37
2023-01-18T14:25:17.392Z,52.77
2023-01-18T14:28:03.508Z,52.40
2023-01-18T14:30:38.081Z,52.54
2023-01-18T14:33:18.443Z,53.30
2023-01-18T14:35:56.112Z,54.64
2023-01-18T14:38:25.986Z,54.66
2023-01-18T14:40:59.922Z,55.39
2023-01-18T14:43:36.399Z,56.29
2023-01-18T14:46:10.863Z,55.47
2023-01-18T14:48:51.554Z,55.60
2023-01-18T14:51:25.028Z,55.60
2023-01-18T14:54:00.543Z,54.25
2023-01-18T14:56:33.413Z,54.30
2023-01-18T14:59:22.132Z,54.40
2023-01-18T15:01:58.181Z,54.87
2023-01-18T15:04:29.886Z,54.77
2023-01-18T15:07:04.071Z,54.72
2023-01-18T15:09:37.370Z,53.96
2023-01-18T15:12:11.647Z,53.60
2023-01-18T15:14:48.052Z,53.63
2023-01-18T15:17:24.027Z,54.49
2023-01-18T15:19:59.484Z,54.33
2023-01-18T15:22:35.887Z,54.14
2023-01-18T15:25:10.357Z,55.02
2023-01-18T15:27:42.199Z,54.81
2023-01-18T15:30:17.864Z,54.89
2023-01-18T15:32:51.316Z,55.47
2023-01-18T15:35:22.000Z,55.22
2023-01-18T15:37:51.932Z,55.37
2023-01-18T15:40:28.605Z,55.74
2023-01-18T15:43:07.577Z,55.71
2023-01-18T15:45:43.751Z,55.84
2023-01-18T15:48:22.781Z,56.72
2023-01-18T15:50:54.960Z,58.43
2023-01-18T15:53:33.287Z,59.31
2023-01-18T15:56:05.737Z,61.03
2023-01-18T15:58:45.670Z,61.85
2023-01-18T16:01:25.194Z,63.09
2023-01-18T16:04:04.015Z,64.57
2023-01-18T16:06:37.460Z,65.78
2023-01-18T16:09:20.995Z,66.87
2023-01-18T16:11:54.632Z,67.34
2023-01-18T16:14:34.626Z,67.42
2023-01-18T16:17:15.007Z,68.13
2023-01-18T16:19:48.258Z,68.24
2023-01-18T16:22:24.489Z,68.70
2023-01-18T16:24:59.900Z,69.42
2023-01-18T16:27:34.108Z,70.09
2023-01-18T16:30:07.613Z,69.71
2023-01-18T16:32:40.143Z,70.63
2023-01-18T16:35:16.457Z,70.94
2023-01-18T16:37:47.762Z,70.87
2023-01-18T16:40:21.157Z,71.40
2023-01-18T16:43:01.393Z,71.58
2023-01-18T16:45:33.472Z,71.87
2023-01-18T16:48:06.941Z,72.03
2023-01-18T16:50:37.049Z,72.17
2023-01-18T16:53:09.494Z,72.30
2023-01-18T16:55:39.895Z,72.47
2023-01-18T16:58:10.125Z,72.41
2023-01-18T17:00:52.429Z,72.40
2023-01-18T17:03:25.636Z,72.88
2023-01-18T17:05:55.994Z,72.57
2023-01-18T17:08:26.111Z,72.90
2023-01-18T17:10:56.815Z,73.01
2023-01-18T17:13:27.352Z,72.88
2023-01-18T17:15:57.281Z,72.83
2023-01-18T17:18:29.849Z,72.76
2023-01-18T17:20:59.855Z,72.68
2023-01-18T17:23:29.800Z,72.62
2023-01-18T17:25:59.799Z,72.47
2023-01-18T17:28:30.195Z,72.19
2023-01-18T17:31:00.403Z,72.00
2023-01-18T17:33:36.058Z,72.85
2023-01-18T17:36:05.948Z,72.88
2023-01-18T17:38:35.976Z,73.10
2023-01-18T17:41:08.225Z,72.92
2023-01-18T17:43:39.548Z,72.26
2023-01-18T17:46:09.591Z,71.50
2023-01-18T17:48:42.227Z,71.76
2023-01-18T17:51:14.107Z,71.38
2023-01-18T17:53:44.990Z,71.48
2023-01-18T17:56:16.937Z,71.67
2023-01-18T17:58:49.707Z,71.13
2023-01-18T18:01:20.415Z,71.02
2023-01-18T18:03:55.060Z,71.62
2023-01-18T18:06:31.287Z,71.72
2023-01-18T18:09:01.879Z,71.06
2023-01-18T18:11:32.171Z,71.72
2023-01-18T18:14:03.147Z,71.74
2023-01-18T18:16:38.495Z,71.67
2023-01-18T18:19:16.888Z,71.04
2023-01-18T18:21:47.904Z,71.30
2023-01-18T18:24:17.801Z,71.14
2023-01-18T18:26:48.037Z,71.31
2023-01-18T18:29:17.954Z,71.54
2023-01-18T18:31:49.773Z,71.31
2023-01-18T18:34:22.381Z,70.68
2023-01-18T18:36:52.377Z,70.98
2023-01-18T18:39:22.364Z,71.21
2023-01-18T18:41:53.055Z,70.48
2023-01-18T18:44:23.056Z,70.37
2023-01-18T18:46:53.170Z,70.17
2023-01-18T18:49:25.777Z,69.79
2023-01-18T18:51:56.247Z,69.38
2023-01-18T18:54:26.252Z,69.14
2023-01-18T18:56:56.347Z,68.90
2023-01-18T18:59:29.145Z,68.81
2023-01-18T19:01:59.328Z,68.91
2023-01-18T19:04:31.919Z,68.91
2023-01-18T19:07:02.078Z,68.08
2023-01-18T19:09:32.032Z,68.19
2023-01-18T19:12:01.997Z,68.83
2023-01-18T19:14:32.227Z,68.69
2023-01-18T19:17:02.930Z,68.18
2023-01-18T19:19:35.438Z,68.59
2023-01-18T19:22:05.521Z,69.01
2023-01-18T19:24:36.909Z,68.69
2023-01-18T19:27:07.195Z,69.56
2023-01-18T19:29:38.294Z,69.18
2023-01-18T19:32:08.571Z,69.19
2023-01-18T19:34:41.179Z,68.98
2023-01-18T19:37:12.620Z,69.69
2023-01-18T19:39:42.574Z,69.26
2023-01-18T19:42:12.558Z,69.92
2023-01-18T19:44:42.546Z,69.74
2023-01-18T19:47:12.403Z,69.68
2023-01-18T19:49:45.569Z,69.53
2023-01-18T19:52:15.538Z,70.30
2023-01-18T19:54:45.376Z,70.34
2023-01-18T19:57:15.303Z,70.34
2023-01-18T19:59:45.250Z,69.41
2023-01-18T20:02:15.331Z,69.52
2023-01-18T20:04:48.212Z,69.71
2023-01-18T20:07:19.100Z,70.14
2023-01-18T20:09:49.008Z,70.21
2023-01-18T20:12:19.071Z,70.35
2023-01-18T20:14:50.260Z,70.44
2023-01-18T20:17:20.295Z,70.85
2023-01-18T20:19:54.331Z,70.56
2023-01-18T20:22:25.156Z,70.33
2023-01-18T20:24:55.081Z,70.40
2023-01-18T20:27:25.027Z,70.27
2023-01-18T20:29:55.572Z,70.74
2023-01-18T20:32:25.603Z,71.04
2023-01-18T20:34:58.189Z,70.46
2023-01-18T20:37:28.284Z,70.71
2023-01-18T20:39:58.605Z,70.93
2023-01-18T20:42:28.725Z,71.06
2023-01-18T20:45:00.555Z,70.79
2023-01-18T20:47:31.106Z,70.67
2023-01-18T20:50:03.657Z,70.97
2023-01-18T20:52:33.682Z,71.07
2023-01-18T20:55:03.802Z,71.13
2023-01-18T20:57:34.383Z,71.43
2023-01-18T21:00:04.356Z,71.51
2023-01-18T21:02:34.493Z,71.41
2023-01-18T21:05:07.576Z,71.00
2023-01-18T21:07:38.461Z,71.30
2023-01-18T21:10:10.830Z,72.06
2023-01-18T21:12:41.480Z,71.71
2023-01-18T21:15:13.728Z,71.51
2023-01-18T21:17:43.656Z,71.39
2023-01-18T21:20:16.909Z,71.31
2023-01-18T21:22:46.837Z,71.67
2023-01-18T21:25:16.911Z,72.00
2023-01-18T21:27:46.823Z,71.81
2023-01-18T21:30:18.050Z,72.22
2023-01-18T21:32:48.968Z,71.34
2023-01-18T21:35:21.697Z,71.44
2023-01-18T21:37:51.635Z,70.80
2023-01-18T21:40:21.712Z,72.02
2023-01-18T21:43:04.063Z,71.38
2023-01-18T21:45:46.514Z,71.77
2023-01-18T21:48:16.371Z,71.53
2023-01-18T21:51:01.262Z,71.06
2023-01-18T21:53:43.559Z,70.82
2023-01-18T21:56:13.773Z,70.91
2023-01-18T21:58:57.916Z,71.39
2023-01-18T22:01:33.958Z,71.32
2023-01-18T22:04:18.311Z,71.05
2023-01-18T22:06:53.083Z,70.95
2023-01-18T22:09:23.358Z,70.91
2023-01-18T22:11:53.390Z,71.03
2023-01-18T22:14:23.429Z,71.52
2023-01-18T22:16:53.601Z,72.18
2023-01-18T22:19:23.724Z,71.86
2023-01-18T22:21:56.374Z,72.03
2023-01-18T22:24:26.277Z,71.93
2023-01-18T22:26:56.475Z,72.36
2023-01-18T22:29:29.395Z,72.23
2023-01-18T22:31:59.368Z,72.45
2023-01-18T22:34:29.613Z,72.42
2023-01-18T22:37:03.335Z,72.79
2023-01-18T22:39:33.459Z,72.24
2023-01-18T22:42:03.439Z,72.42
2023-01-18T22:44:33.499Z,72.89
2023-01-18T22:47:03.364Z,72.78
2023-01-18T22:49:33.326Z,72.48
2023-01-18T22:52:05.830Z,72.73
2023-01-18T22:54:35.699Z,73.00
2023-01-18T22:57:05.553Z,72.81
2023-01-18T22:59:35.624Z,72.89
2023-01-18T23:02:05.469Z,72.11
2023-01-18T23:04:35.284Z,72.69
2023-01-18T23:07:07.824Z,72.84
2023-01-18T23:09:37.772Z,72.49
2023-01-18T23:12:08.286Z,73.26
2023-01-18T23:14:50.857Z,73.17
2023-01-18T23:17:33.309Z,73.09
2023-01-18T23:20:03.464Z,73.00
2023-01-18T23:22:35.952Z,72.77
2023-01-18T23:25:06.801Z,72.41
2023-01-18T23:27:36.718Z,72.66
2023-01-18T23:30:07.723Z,72.49
2023-01-18T23:32:37.636Z,72.55
2023-01-18T23:35:08.897Z,72.74
2023-01-18T23:37:41.322Z,72.50
2023-01-18T23:40:25.161Z,72.72
2023-01-18T23:43:08.752Z,72.23
2023-01-18T23:45:51.044Z,72.36
2023-01-18T23:48:34.871Z,71.88
2023-01-18T23:51:18.362Z,72.04
2023-01-18T23:54:03.863Z,71.96
2023-01-18T23:56:34.724Z,72.33
2023-01-18T23:59:05.112Z,71.39
